sensor_id;sensor_type;location;lat;lon;timestamp;P1;durP1;ratioP1;P2;durP2;ratioP2
62457;SDS011;48509;52.122;5.250;2024-03-22T00:01:40;76.0;;;50.0;;
62457;SDS011;48509;52.122;5.250;2024-03-22T00:03:16;77.2;;;52.0;;
62457;SDS011;48509;52.122;5.250;2024-03-22T00:04:52;77.61;;;49.4;;
62457;SDS011;48509;52.122;5.250;2024-03-22T00:08:05;73.5;;;49.8;;
62457;SDS011;48509;52.122;5.250;2024-03-22T00:09:41;76.3;;;49.6;;
62457;SDS011;48509;52.122;5.250;2024-03-22T00:11:18;73.7;;;48.2;;
62457;SDS011;48509;52.122;5.250;2024-03-22T00:12:54;82.3;;;50.6;;
62457;SDS011;48509;52.122;5.250;2024-03-22T00:16:06;77.2;;;49.6;;
62457;SDS011;48509;52.122;5.250;2024-03-22T00:17:42;76.2;;;50.6;;
62457;SDS011;48509;52.122;5.250;2024-03-22T00:19:19;72.0;;;48.0;;
62457;SDS011;48509;52.122;5.250;2024-03-22T00:22:31;74.0;;;50.6;;
62457;SDS011;48509;52.122;5.250;2024-03-22T00:24:07;77.7;;;51.0;;
62457;SDS011;48509;52.122;5.250;2024-03-22T00:25:43;79.11;;;52.1;;
62457;SDS011;48509;52.122;5.250;2024-03-22T00:28:55;70.61;;;47.7;;
62457;SDS011;48509;52.122;5.250;2024-03-22T00:30:31;79.2;;;50.9;;
62457;SDS011;48509;52.122;5.250;2024-03-22T00:32:07;74.91;;;49.0;;
62457;SDS011;48509;52.122;5.250;2024-03-22T00:35:19;77.3;;;51.4;;
62457;SDS011;48509;52.122;5.250;2024-03-22T00:36:55;79.8;;;48.8;;
62457;SDS011;48509;52.122;5.250;2024-03-22T00:38:32;85.0;;;51.6;;
62457;SDS011;48509;52.122;5.250;2024-03-22T00:40:08;72.61;;;48.9;;
62457;SDS011;48509;52.122;5.250;2024-03-22T00:43:21;72.91;;;49.9;;
62457;SDS011;48509;52.122;5.250;2024-03-22T00:44:57;76.2;;;49.9;;
62457;SDS011;48509;52.122;5.250;2024-03-22T00:46:34;77.0;;;51.3;;
62457;SDS011;48509;52.122;5.250;2024-03-22T00:49:46;77.61;;;51.7;;
62457;SDS011;48509;52.122;5.250;2024-03-22T00:51:22;68.91;;;46.8;;
62457;SDS011;48509;52.122;5.250;2024-03-22T00:52:59;76.11;;;49.4;;
62457;SDS011;48509;52.122;5.250;2024-03-22T00:56:11;83.9;;;53.0;;
62457;SDS011;48509;52.122;5.250;2024-03-22T00:57:47;84.4;;;53.4;;
62457;SDS011;48509;52.122;5.250;2024-03-22T00:59:23;79.11;;;51.7;;
62457;SDS011;48509;52.122;5.250;2024-03-22T01:00:59;85.6;;;53.7;;
62457;SDS011;48509;52.122;5.250;2024-03-22T01:04:11;92.1;;;55.4;;
62457;SDS011;48509;52.122;5.250;2024-03-22T01:05:47;80.11;;;52.4;;
62457;SDS011;48509;52.122;5.250;2024-03-22T01:07:23;87.1;;;54.0;;
62457;SDS011;48509;52.122;5.250;2024-03-22T01:10:36;84.3;;;53.9;;
62457;SDS011;48509;52.122;5.250;2024-03-22T01:12:12;78.2;;;50.7;;
62457;SDS011;48509;52.122;5.250;2024-03-22T01:13:48;83.5;;;53.6;;
62457;SDS011;48509;52.122;5.250;2024-03-22T01:17:00;79.2;;;49.5;;
62457;SDS011;48509;52.122;5.250;2024-03-22T01:18:36;78.2;;;50.4;;
62457;SDS011;48509;52.122;5.250;2024-03-22T01:20:12;80.2;;;51.4;;
62457;SDS011;48509;52.122;5.250;2024-03-22T01:23:24;86.2;;;53.0;;
62457;SDS011;48509;52.122;5.250;2024-03-22T01:25:00;80.2;;;50.1;;
62457;SDS011;48509;52.122;5.250;2024-03-22T01:26:36;86.5;;;53.4;;
62457;SDS011;48509;52.122;5.250;2024-03-22T01:28:14;80.41;;;52.0;;
62457;SDS011;48509;52.122;5.250;2024-03-22T01:31:26;80.41;;;50.9;;
62457;SDS011;48509;52.122;5.250;2024-03-22T01:33:03;74.0;;;48.4;;
62457;SDS011;48509;52.122;5.250;2024-03-22T01:34:39;72.5;;;48.3;;
62457;SDS011;48509;52.122;5.250;2024-03-22T01:37:51;77.0;;;48.0;;
62457;SDS011;48509;52.122;5.250;2024-03-22T01:39:27;79.3;;;48.9;;
62457;SDS011;48509;52.122;5.250;2024-03-22T01:41:03;83.4;;;51.6;;
62457;SDS011;48509;52.122;5.250;2024-03-22T01:44:17;72.5;;;46.3;;
62457;SDS011;48509;52.122;5.250;2024-03-22T01:45:53;75.8;;;48.5;;
62457;SDS011;48509;52.122;5.250;2024-03-22T01:47:30;82.6;;;49.9;;
62457;SDS011;48509;52.122;5.250;2024-03-22T01:49:06;81.0;;;49.2;;
62457;SDS011;48509;52.122;5.250;2024-03-22T01:52:22;76.8;;;47.7;;
62457;SDS011;48509;52.122;5.250;2024-03-22T01:53:58;76.7;;;48.5;;
62457;SDS011;48509;52.122;5.250;2024-03-22T01:55:37;70.91;;;46.4;;
62457;SDS011;48509;52.122;5.250;2024-03-22T01:58:49;76.5;;;48.8;;
62457;SDS011;48509;52.122;5.250;2024-03-22T02:00:25;80.7;;;49.6;;
62457;SDS011;48509;52.122;5.250;2024-03-22T02:02:02;77.5;;;48.2;;
62457;SDS011;48509;52.122;5.250;2024-03-22T02:05:14;84.3;;;51.8;;
62457;SDS011;48509;52.122;5.250;2024-03-22T02:06:51;78.91;;;49.3;;
62457;SDS011;48509;52.122;5.250;2024-03-22T02:08:27;82.4;;;53.7;;
62457;SDS011;48509;52.122;5.250;2024-03-22T02:10:03;82.5;;;50.6;;
62457;SDS011;48509;52.122;5.250;2024-03-22T02:13:18;87.4;;;55.2;;
62457;SDS011;48509;52.122;5.250;2024-03-22T02:14:57;80.61;;;53.8;;
62457;SDS011;48509;52.122;5.250;2024-03-22T02:16:33;89.8;;;54.7;;
62457;SDS011;48509;52.122;5.250;2024-03-22T02:19:45;86.2;;;55.5;;
62457;SDS011;48509;52.122;5.250;2024-03-22T02:21:21;85.9;;;55.5;;
62457;SDS011;48509;52.122;5.250;2024-03-22T02:22:57;99.3;;;60.7;;
62457;SDS011;48509;52.122;5.250;2024-03-22T02:26:09;94.9;;;58.8;;
62457;SDS011;48509;52.122;5.250;2024-03-22T02:27:45;95.4;;;60.4;;
62457;SDS011;48509;52.122;5.250;2024-03-22T02:29:21;99.5;;;62.4;;
62457;SDS011;48509;52.122;5.250;2024-03-22T02:30:57;101.6;;;63.1;;
62457;SDS011;48509;52.122;5.250;2024-03-22T02:34:11;112.5;;;69.11;;
62457;SDS011;48509;52.122;5.250;2024-03-22T02:35:47;112.5;;;69.11;;
62457;SDS011;48509;52.122;5.250;2024-03-22T02:37:24;107.1;;;68.8;;
62457;SDS011;48509;52.122;5.250;2024-03-22T02:40:36;108.4;;;65.0;;
62457;SDS011;48509;52.122;5.250;2024-03-22T02:42:12;113.6;;;67.2;;
62457;SDS011;48509;52.122;5.250;2024-03-22T02:43:48;117.3;;;67.41;;
62457;SDS011;48509;52.122;5.250;2024-03-22T02:47:00;112.9;;;68.1;;
62457;SDS011;48509;52.122;5.250;2024-03-22T02:48:36;109.2;;;65.5;;
62457;SDS011;48509;52.122;5.250;2024-03-22T02:50:13;113.7;;;67.7;;
62457;SDS011;48509;52.122;5.250;2024-03-22T02:53:25;112.7;;;66.8;;
62457;SDS011;48509;52.122;5.250;2024-03-22T02:55:01;104.0;;;63.3;;
62457;SDS011;48509;52.122;5.250;2024-03-22T02:56:37;105.5;;;64.0;;
62457;SDS011;48509;52.122;5.250;2024-03-22T02:58:13;112.7;;;66.41;;
62457;SDS011;48509;52.122;5.250;2024-03-22T03:01:25;114.0;;;67.0;;
62457;SDS011;48509;52.122;5.250;2024-03-22T03:03:02;116.5;;;67.2;;
62457;SDS011;48509;52.122;5.250;2024-03-22T03:04:39;110.3;;;64.41;;
62457;SDS011;48509;52.122;5.250;2024-03-22T03:07:51;107.8;;;63.2;;
62457;SDS011;48509;52.122;5.250;2024-03-22T03:09:27;107.9;;;63.2;;
62457;SDS011;48509;52.122;5.250;2024-03-22T03:11:03;96.6;;;59.8;;
62457;SDS011;48509;52.122;5.250;2024-03-22T03:14:15;102.0;;;60.9;;
62457;SDS011;48509;52.122;5.250;2024-03-22T03:15:51;101.6;;;60.5;;
62457;SDS011;48509;52.122;5.250;2024-03-22T03:17:27;90.6;;;55.6;;
62457;SDS011;48509;52.122;5.250;2024-03-22T03:22:16;108.5;;;62.2;;
62457;SDS011;48509;52.122;5.250;2024-03-22T03:23:52;103.9;;;62.2;;
62457;SDS011;48509;52.122;5.250;2024-03-22T03:25:28;98.4;;;58.9;;
62457;SDS011;48509;52.122;5.250;2024-03-22T03:28:40;96.6;;;60.3;;
62457;SDS011;48509;52.122;5.250;2024-03-22T03:30:16;105.9;;;62.6;;
62457;SDS011;48509;52.122;5.250;2024-03-22T03:31:52;103.8;;;62.2;;
62457;SDS011;48509;52.122;5.250;2024-03-22T03:35:06;100.2;;;58.4;;
62457;SDS011;48509;52.122;5.250;2024-03-22T03:36:42;96.5;;;55.7;;
62457;SDS011;48509;52.122;5.250;2024-03-22T03:38:18;97.0;;;56.4;;
62457;SDS011;48509;52.122;5.250;2024-03-22T03:41:30;88.3;;;52.5;;
62457;SDS011;48509;52.122;5.250;2024-03-22T03:43:06;90.8;;;52.6;;
62457;SDS011;48509;52.122;5.250;2024-03-22T03:44:42;90.7;;;51.5;;
62457;SDS011;48509;52.122;5.250;2024-03-22T03:46:18;83.6;;;52.4;;
62457;SDS011;48509;52.122;5.250;2024-03-22T03:49:30;95.6;;;53.8;;
62457;SDS011;48509;52.122;5.250;2024-03-22T03:51:07;86.1;;;51.6;;
62457;SDS011;48509;52.122;5.250;2024-03-22T03:52:43;92.5;;;54.4;;
62457;SDS011;48509;52.122;5.250;2024-03-22T03:55:55;96.0;;;54.8;;
62457;SDS011;48509;52.122;5.250;2024-03-22T03:57:31;93.4;;;54.6;;
62457;SDS011;48509;52.122;5.250;2024-03-22T03:59:07;99.0;;;55.1;;
62457;SDS011;48509;52.122;5.250;2024-03-22T04:02:19;94.1;;;54.4;;
62457;SDS011;48509;52.122;5.250;2024-03-22T04:03:55;87.9;;;49.5;;
62457;SDS011;48509;52.122;5.250;2024-03-22T04:05:31;93.6;;;52.6;;
62457;SDS011;48509;52.122;5.250;2024-03-22T04:08:44;84.0;;;50.9;;
62457;SDS011;48509;52.122;5.250;2024-03-22T04:10:21;84.7;;;49.6;;
62457;SDS011;48509;52.122;5.250;2024-03-22T04:11:57;82.4;;;49.8;;
62457;SDS011;48509;52.122;5.250;2024-03-22T04:13:33;86.2;;;50.3;;
62457;SDS011;48509;52.122;5.250;2024-03-22T04:16:45;87.9;;;51.5;;
62457;SDS011;48509;52.122;5.250;2024-03-22T04:18:21;85.7;;;51.3;;
62457;SDS011;48509;52.122;5.250;2024-03-22T04:19:57;84.2;;;50.9;;
62457;SDS011;48509;52.122;5.250;2024-03-22T04:23:10;86.9;;;52.2;;
62457;SDS011;48509;52.122;5.250;2024-03-22T04:24:47;83.8;;;51.0;;
62457;SDS011;48509;52.122;5.250;2024-03-22T04:26:23;86.4;;;49.8;;
62457;SDS011;48509;52.122;5.250;2024-03-22T04:29:35;86.4;;;49.7;;
62457;SDS011;48509;52.122;5.250;2024-03-22T04:31:11;85.3;;;51.3;;
62457;SDS011;48509;52.122;5.250;2024-03-22T04:32:48;81.91;;;50.2;;
62457;SDS011;48509;52.122;5.250;2024-03-22T04:34:24;88.9;;;51.5;;
62457;SDS011;48509;52.122;5.250;2024-03-22T04:37:37;83.4;;;51.7;;
62457;SDS011;48509;52.122;5.250;2024-03-22T04:39:14;79.3;;;50.0;;
62457;SDS011;48509;52.122;5.250;2024-03-22T04:40:50;77.2;;;48.4;;
62457;SDS011;48509;52.122;5.250;2024-03-22T04:44:02;83.6;;;51.3;;
62457;SDS011;48509;52.122;5.250;2024-03-22T04:45:38;82.6;;;52.3;;
62457;SDS011;48509;52.122;5.250;2024-03-22T04:47:14;80.11;;;50.5;;
62457;SDS011;48509;52.122;5.250;2024-03-22T04:50:26;81.11;;;50.6;;
62457;SDS011;48509;52.122;5.250;2024-03-22T04:52:02;87.3;;;52.2;;
62457;SDS011;48509;52.122;5.250;2024-03-22T04:53:38;77.8;;;47.8;;
62457;SDS011;48509;52.122;5.250;2024-03-22T04:56:51;78.0;;;50.3;;
62457;SDS011;48509;52.122;5.250;2024-03-22T04:58:27;83.1;;;52.5;;
62457;SDS011;48509;52.122;5.250;2024-03-22T05:00:03;79.8;;;50.1;;
62457;SDS011;48509;52.122;5.250;2024-03-22T05:01:40;90.0;;;54.7;;
62457;SDS011;48509;52.122;5.250;2024-03-22T05:04:52;76.8;;;52.1;;
62457;SDS011;48509;52.122;5.250;2024-03-22T05:06:28;90.1;;;53.6;;
62457;SDS011;48509;52.122;5.250;2024-03-22T05:08:05;89.2;;;55.6;;
62457;SDS011;48509;52.122;5.250;2024-03-22T05:11:18;89.2;;;56.7;;
62457;SDS011;48509;52.122;5.250;2024-03-22T05:12:54;88.2;;;55.8;;
62457;SDS011;48509;52.122;5.250;2024-03-22T05:14:30;91.7;;;56.9;;
62457;SDS011;48509;52.122;5.250;2024-03-22T05:17:43;94.1;;;59.8;;
62457;SDS011;48509;52.122;5.250;2024-03-22T05:19:19;106.6;;;62.0;;
62457;SDS011;48509;52.122;5.250;2024-03-22T05:20:55;101.7;;;63.2;;
62457;SDS011;48509;52.122;5.250;2024-03-22T05:22:31;100.2;;;62.0;;
62457;SDS011;48509;52.122;5.250;2024-03-22T05:25:43;94.7;;;60.7;;
62457;SDS011;48509;52.122;5.250;2024-03-22T05:27:20;110.5;;;63.1;;
62457;SDS011;48509;52.122;5.250;2024-03-22T05:28:56;102.3;;;63.6;;
62457;SDS011;48509;52.122;5.250;2024-03-22T05:32:08;104.2;;;63.4;;
62457;SDS011;48509;52.122;5.250;2024-03-22T05:33:44;97.4;;;62.8;;
62457;SDS011;48509;52.122;5.250;2024-03-22T05:35:20;100.2;;;60.6;;
62457;SDS011;48509;52.122;5.250;2024-03-22T05:38:32;98.8;;;60.7;;
62457;SDS011;48509;52.122;5.250;2024-03-22T05:40:09;92.6;;;58.2;;
62457;SDS011;48509;52.122;5.250;2024-03-22T05:41:45;100.3;;;61.3;;
62457;SDS011;48509;52.122;5.250;2024-03-22T05:44:58;92.9;;;57.5;;
62457;SDS011;48509;52.122;5.250;2024-03-22T05:46:34;88.8;;;55.3;;
62457;SDS011;48509;52.122;5.250;2024-03-22T05:48:10;89.3;;;56.8;;
62457;SDS011;48509;52.122;5.250;2024-03-22T05:49:46;95.9;;;58.8;;
62457;SDS011;48509;52.122;5.250;2024-03-22T05:52:58;88.2;;;54.3;;
62457;SDS011;48509;52.122;5.250;2024-03-22T05:54:34;90.2;;;56.6;;
62457;SDS011;48509;52.122;5.250;2024-03-22T05:56:10;81.7;;;54.0;;
62457;SDS011;48509;52.122;5.250;2024-03-22T05:59:23;83.6;;;55.2;;
62457;SDS011;48509;52.122;5.250;2024-03-22T06:00:59;86.6;;;55.4;;
62457;SDS011;48509;52.122;5.250;2024-03-22T06:02:35;77.41;;;51.3;;
62457;SDS011;48509;52.122;5.250;2024-03-22T06:05:47;86.1;;;54.0;;
62457;SDS011;48509;52.122;5.250;2024-03-22T06:07:23;85.7;;;53.8;;
62457;SDS011;48509;52.122;5.250;2024-03-22T06:08:59;95.1;;;59.4;;
62457;SDS011;48509;52.122;5.250;2024-03-22T06:10:35;93.9;;;59.7;;
62457;SDS011;48509;52.122;5.250;2024-03-22T06:13:48;91.2;;;59.6;;
62457;SDS011;48509;52.122;5.250;2024-03-22T06:15:24;90.5;;;56.1;;
62457;SDS011;48509;52.122;5.250;2024-03-22T06:17:01;94.8;;;56.2;;
62457;SDS011;48509;52.122;5.250;2024-03-22T06:20:15;94.2;;;59.0;;
62457;SDS011;48509;52.122;5.250;2024-03-22T06:21:51;88.9;;;57.7;;
62457;SDS011;48509;52.122;5.250;2024-03-22T06:23:27;98.4;;;61.0;;
62457;SDS011;48509;52.122;5.250;2024-03-22T06:26:40;91.9;;;59.4;;
62457;SDS011;48509;52.122;5.250;2024-03-22T06:28:16;82.6;;;54.3;;
62457;SDS011;48509;52.122;5.250;2024-03-22T06:29:52;95.6;;;58.0;;
62457;SDS011;48509;52.122;5.250;2024-03-22T06:33:05;87.7;;;53.3;;
62457;SDS011;48509;52.122;5.250;2024-03-22T06:34:41;89.5;;;57.4;;
62457;SDS011;48509;52.122;5.250;2024-03-22T06:36:17;84.4;;;53.2;;
62457;SDS011;48509;52.122;5.250;2024-03-22T06:37:53;78.0;;;52.0;;
62457;SDS011;48509;52.122;5.250;2024-03-22T06:41:05;80.7;;;52.3;;
62457;SDS011;48509;52.122;5.250;2024-03-22T06:42:42;85.3;;;50.2;;
62457;SDS011;48509;52.122;5.250;2024-03-22T06:44:18;80.5;;;49.3;;
62457;SDS011;48509;52.122;5.250;2024-03-22T06:47:31;75.3;;;48.8;;
62457;SDS011;48509;52.122;5.250;2024-03-22T06:49:07;70.11;;;44.7;;
62457;SDS011;48509;52.122;5.250;2024-03-22T06:50:43;70.11;;;45.6;;
62457;SDS011;48509;52.122;5.250;2024-03-22T06:53:55;66.2;;;42.7;;
62457;SDS011;48509;52.122;5.250;2024-03-22T06:55:31;66.2;;;42.7;;
62457;SDS011;48509;52.122;5.250;2024-03-22T06:57:07;65.7;;;40.4;;
62457;SDS011;48509;52.122;5.250;2024-03-22T06:58:44;64.5;;;40.21;;
62457;SDS011;48509;52.122;5.250;2024-03-22T07:01:56;72.11;;;43.9;;
62457;SDS011;48509;52.122;5.250;2024-03-22T07:03:32;70.7;;;42.6;;
62457;SDS011;48509;52.122;5.250;2024-03-22T07:05:09;66.91;;;43.1;;
62457;SDS011;48509;52.122;5.250;2024-03-22T07:08:23;70.2;;;44.6;;
62457;SDS011;48509;52.122;5.250;2024-03-22T07:09:59;66.91;;;42.3;;
62457;SDS011;48509;52.122;5.250;2024-03-22T07:11:35;64.6;;;43.7;;
62457;SDS011;48509;52.122;5.250;2024-03-22T07:14:47;68.91;;;43.2;;
62457;SDS011;48509;52.122;5.250;2024-03-22T07:16:23;68.91;;;44.4;;
62457;SDS011;48509;52.122;5.250;2024-03-22T07:17:59;63.9;;;42.6;;
62457;SDS011;48509;52.122;5.250;2024-03-22T07:21:12;68.3;;;44.5;;
62457;SDS011;48509;52.122;5.250;2024-03-22T07:22:48;66.5;;;42.6;;
62457;SDS011;48509;52.122;5.250;2024-03-22T07:24:24;68.41;;;44.9;;
62457;SDS011;48509;52.122;5.250;2024-03-22T07:26:00;68.5;;;41.7;;
62457;SDS011;48509;52.122;5.250;2024-03-22T07:29:12;63.9;;;41.4;;
62457;SDS011;48509;52.122;5.250;2024-03-22T07:30:49;67.6;;;41.5;;
62457;SDS011;48509;52.122;5.250;2024-03-22T07:32:25;61.5;;;38.81;;
62457;SDS011;48509;52.122;5.250;2024-03-22T07:35:37;65.8;;;41.4;;
62457;SDS011;48509;52.122;5.250;2024-03-22T07:37:13;67.5;;;40.21;;
62457;SDS011;48509;52.122;5.250;2024-03-22T07:38:50;62.4;;;38.21;;
62457;SDS011;48509;52.122;5.250;2024-03-22T07:42:02;62.0;;;39.31;;
62457;SDS011;48509;52.122;5.250;2024-03-22T07:43:38;58.2;;;36.6;;
62457;SDS011;48509;52.122;5.250;2024-03-22T07:45:14;61.7;;;39.21;;
62457;SDS011;48509;52.122;5.250;2024-03-22T07:46:50;66.3;;;41.4;;
62457;SDS011;48509;52.122;5.250;2024-03-22T07:50:02;68.41;;;40.6;;
62457;SDS011;48509;52.122;5.250;2024-03-22T07:51:38;60.8;;;38.81;;
62457;SDS011;48509;52.122;5.250;2024-03-22T07:53:15;67.6;;;40.81;;
62457;SDS011;48509;52.122;5.250;2024-03-22T07:56:27;62.8;;;40.0;;
62457;SDS011;48509;52.122;5.250;2024-03-22T07:58:03;67.0;;;41.6;;
62457;SDS011;48509;52.122;5.250;2024-03-22T07:59:39;65.6;;;40.4;;
62457;SDS011;48509;52.122;5.250;2024-03-22T08:02:51;65.3;;;40.71;;
62457;SDS011;48509;52.122;5.250;2024-03-22T08:04:27;61.4;;;40.0;;
62457;SDS011;48509;52.122;5.250;2024-03-22T08:06:03;63.8;;;39.6;;
62457;SDS011;48509;52.122;5.250;2024-03-22T08:09:16;61.2;;;39.9;;
62457;SDS011;48509;52.122;5.250;2024-03-22T08:10:52;66.2;;;38.81;;
62457;SDS011;48509;52.122;5.250;2024-03-22T08:12:28;59.5;;;38.31;;
62457;SDS011;48509;52.122;5.250;2024-03-22T08:14:04;61.8;;;36.81;;
62457;SDS011;48509;52.122;5.250;2024-03-22T08:17:17;63.6;;;39.21;;
62457;SDS011;48509;52.122;5.250;2024-03-22T08:18:53;69.0;;;38.71;;
62457;SDS011;48509;52.122;5.250;2024-03-22T08:20:29;61.0;;;36.9;;
62457;SDS011;48509;52.122;5.250;2024-03-22T08:23:42;68.61;;;40.81;;
62457;SDS011;48509;52.122;5.250;2024-03-22T08:25:18;56.8;;;33.1;;
62457;SDS011;48509;52.122;5.250;2024-03-22T08:26:54;53.3;;;33.21;;
62457;SDS011;48509;52.122;5.250;2024-03-22T08:30:06;53.6;;;30.4;;
62457;SDS011;48509;52.122;5.250;2024-03-22T08:31:43;54.3;;;28.6;;
62457;SDS011;48509;52.122;5.250;2024-03-22T08:33:19;60.5;;;32.0;;
62457;SDS011;48509;52.122;5.250;2024-03-22T08:34:55;52.9;;;28.2;;
62457;SDS011;48509;52.122;5.250;2024-03-22T08:38:07;48.1;;;25.4;;
62457;SDS011;48509;52.122;5.250;2024-03-22T08:39:44;51.2;;;27.9;;
62457;SDS011;48509;52.122;5.250;2024-03-22T08:41:20;42.9;;;23.9;;
62457;SDS011;48509;52.122;5.250;2024-03-22T08:44:32;45.8;;;24.1;;
62457;SDS011;48509;52.122;5.250;2024-03-22T08:46:08;43.4;;;23.3;;
62457;SDS011;48509;52.122;5.250;2024-03-22T08:47:44;53.8;;;26.0;;
62457;SDS011;48509;52.122;5.250;2024-03-22T08:50:56;49.7;;;25.3;;
62457;SDS011;48509;52.122;5.250;2024-03-22T08:52:32;48.5;;;25.3;;
62457;SDS011;48509;52.122;5.250;2024-03-22T08:54:08;49.1;;;25.1;;
62457;SDS011;48509;52.122;5.250;2024-03-22T08:57:22;38.0;;;22.2;;
62457;SDS011;48509;52.122;5.250;2024-03-22T08:58:58;47.3;;;25.6;;
62457;SDS011;48509;52.122;5.250;2024-03-22T09:00:34;48.5;;;25.1;;
62457;SDS011;48509;52.122;5.250;2024-03-22T09:02:10;45.1;;;23.5;;
62457;SDS011;48509;52.122;5.250;2024-03-22T09:05:22;49.0;;;24.7;;
62457;SDS011;48509;52.122;5.250;2024-03-22T09:06:58;47.4;;;25.6;;
62457;SDS011;48509;52.122;5.250;2024-03-22T09:08:34;48.8;;;24.6;;
62457;SDS011;48509;52.122;5.250;2024-03-22T09:11:47;49.7;;;25.9;;
62457;SDS011;48509;52.122;5.250;2024-03-22T09:13:23;46.7;;;24.3;;
62457;SDS011;48509;52.122;5.250;2024-03-22T09:15:01;48.5;;;23.8;;
62457;SDS011;48509;52.122;5.250;2024-03-22T09:18:13;44.7;;;22.6;;
62457;SDS011;48509;52.122;5.250;2024-03-22T09:19:49;45.9;;;20.8;;
62457;SDS011;48509;52.122;5.250;2024-03-22T09:21:25;46.9;;;23.4;;
62457;SDS011;48509;52.122;5.250;2024-03-22T09:24:38;52.0;;;24.2;;
62457;SDS011;48509;52.122;5.250;2024-03-22T09:26:14;44.2;;;23.4;;
62457;SDS011;48509;52.122;5.250;2024-03-22T09:27:52;37.9;;;20.9;;
62457;SDS011;48509;52.122;5.250;2024-03-22T09:29:28;41.7;;;21.8;;
62457;SDS011;48509;52.122;5.250;2024-03-22T09:32:41;41.5;;;21.8;;
62457;SDS011;48509;52.122;5.250;2024-03-22T09:34:18;48.1;;;23.1;;
62457;SDS011;48509;52.122;5.250;2024-03-22T09:35:54;36.0;;;20.7;;
62457;SDS011;48509;52.122;5.250;2024-03-22T09:39:09;36.21;;;19.7;;
62457;SDS011;48509;52.122;5.250;2024-03-22T09:40:46;35.6;;;19.8;;
62457;SDS011;48509;52.122;5.250;2024-03-22T09:42:22;39.5;;;22.0;;
62457;SDS011;48509;52.122;5.250;2024-03-22T09:43:59;34.6;;;20.8;;
62457;SDS011;48509;52.122;5.250;2024-03-22T09:47:15;31.9;;;19.61;;
62457;SDS011;48509;52.122;5.250;2024-03-22T09:48:52;36.31;;;20.9;;
62457;SDS011;48509;52.122;5.250;2024-03-22T09:50:30;34.9;;;20.7;;
62457;SDS011;48509;52.122;5.250;2024-03-22T09:53:43;35.71;;;19.41;;
62457;SDS011;48509;52.122;5.250;2024-03-22T09:55:22;33.8;;;20.2;;
62457;SDS011;48509;52.122;5.250;2024-03-22T09:56:58;36.6;;;20.41;;
62457;SDS011;48509;52.122;5.250;2024-03-22T09:58:36;27.7;;;18.61;;
62457;SDS011;48509;52.122;5.250;2024-03-22T10:01:52;27.4;;;17.91;;
62457;SDS011;48509;52.122;5.250;2024-03-22T10:03:29;25.3;;;15.8;;
62457;SDS011;48509;52.122;5.250;2024-03-22T10:05:05;34.5;;;20.5;;
62457;SDS011;48509;52.122;5.250;2024-03-22T10:08:18;41.2;;;20.6;;
62457;SDS011;48509;52.122;5.250;2024-03-22T10:09:57;36.1;;;19.7;;
62457;SDS011;48509;52.122;5.250;2024-03-22T10:11:34;28.5;;;16.2;;
62457;SDS011;48509;52.122;5.250;2024-03-22T10:14:46;24.2;;;16.11;;
62457;SDS011;48509;52.122;5.250;2024-03-22T10:16:23;27.3;;;16.61;;
62457;SDS011;48509;52.122;5.250;2024-03-22T10:17:59;33.4;;;18.2;;
62457;SDS011;48509;52.122;5.250;2024-03-22T10:19:35;26.8;;;18.91;;
62457;SDS011;48509;52.122;5.250;2024-03-22T10:22:48;29.4;;;18.41;;
62457;SDS011;48509;52.122;5.250;2024-03-22T10:24:25;29.5;;;18.2;;
62457;SDS011;48509;52.122;5.250;2024-03-22T10:26:01;33.71;;;21.6;;
62457;SDS011;48509;52.122;5.250;2024-03-22T10:29:15;34.1;;;20.5;;
62457;SDS011;48509;52.122;5.250;2024-03-22T10:30:52;31.7;;;19.8;;
62457;SDS011;48509;52.122;5.250;2024-03-22T10:32:29;34.81;;;20.3;;
62457;SDS011;48509;52.122;5.250;2024-03-22T10:35:43;39.1;;;22.6;;
62457;SDS011;48509;52.122;5.250;2024-03-22T10:37:20;33.21;;;21.4;;
62457;SDS011;48509;52.122;5.250;2024-03-22T10:38:58;33.71;;;21.4;;
62457;SDS011;48509;52.122;5.250;2024-03-22T10:40:36;30.4;;;18.91;;
62457;SDS011;48509;52.122;5.250;2024-03-22T10:43:48;35.21;;;21.3;;
62457;SDS011;48509;52.122;5.250;2024-03-22T10:45:24;34.6;;;21.6;;
62457;SDS011;48509;52.122;5.250;2024-03-22T10:47:02;36.81;;;21.9;;
62457;SDS011;48509;52.122;5.250;2024-03-22T10:50:19;35.71;;;23.4;;
62457;SDS011;48509;52.122;5.250;2024-03-22T10:51:58;32.5;;;22.0;;
62457;SDS011;48509;52.122;5.250;2024-03-22T10:53:37;35.21;;;19.61;;
62457;SDS011;48509;52.122;5.250;2024-03-22T10:55:15;34.5;;;20.7;;
62457;SDS011;48509;52.122;5.250;2024-03-22T10:58:38;39.71;;;24.7;;
62457;SDS011;48509;52.122;5.250;2024-03-22T11:00:15;36.71;;;21.7;;
62457;SDS011;48509;52.122;5.250;2024-03-22T11:02:03;25.9;;;18.91;;
62457;SDS011;48509;52.122;5.250;2024-03-22T11:03:39;37.31;;;24.1;;
62457;SDS011;48509;52.122;5.250;2024-03-22T11:06:53;32.21;;;21.1;;
62457;SDS011;48509;52.122;5.250;2024-03-22T11:08:32;37.31;;;23.2;;
62457;SDS011;48509;52.122;5.250;2024-03-22T11:10:11;33.0;;;21.5;;
62457;SDS011;48509;52.122;5.250;2024-03-22T11:13:27;27.8;;;17.41;;
62457;SDS011;48509;52.122;5.250;2024-03-22T11:15:03;31.1;;;19.5;;
62457;SDS011;48509;52.122;5.250;2024-03-22T11:16:42;31.2;;;19.3;;
62457;SDS011;48509;52.122;5.250;2024-03-22T11:18:18;29.6;;;17.61;;
62457;SDS011;48509;52.122;5.250;2024-03-22T11:21:32;25.0;;;16.61;;
62457;SDS011;48509;52.122;5.250;2024-03-22T11:23:08;21.8;;;15.8;;
62457;SDS011;48509;52.122;5.250;2024-03-22T11:24:45;23.7;;;14.9;;
62457;SDS011;48509;52.122;5.250;2024-03-22T11:27:57;28.4;;;16.8;;
62457;SDS011;48509;52.122;5.250;2024-03-22T11:29:35;20.9;;;13.3;;
62457;SDS011;48509;52.122;5.250;2024-03-22T11:31:11;21.8;;;15.0;;
62457;SDS011;48509;52.122;5.250;2024-03-22T11:32:47;16.5;;;11.9;;
62457;SDS011;48509;52.122;5.250;2024-03-22T11:36:00;20.5;;;14.4;;
62457;SDS011;48509;52.122;5.250;2024-03-22T11:37:37;22.2;;;14.3;;
62457;SDS011;48509;52.122;5.250;2024-03-22T11:39:14;23.9;;;17.11;;
62457;SDS011;48509;52.122;5.250;2024-03-22T11:42:26;17.61;;;13.1;;
62457;SDS011;48509;52.122;5.250;2024-03-22T11:44:02;15.5;;;10.8;;
62457;SDS011;48509;52.122;5.250;2024-03-22T11:45:39;15.3;;;10.8;;
62457;SDS011;48509;52.122;5.250;2024-03-22T11:48:52;19.41;;;12.1;;
62457;SDS011;48509;52.122;5.250;2024-03-22T11:50:29;15.4;;;12.3;;
62457;SDS011;48509;52.122;5.250;2024-03-22T11:52:07;18.91;;;13.3;;
62457;SDS011;48509;52.122;5.250;2024-03-22T11:53:48;14.0;;;10.5;;
62457;SDS011;48509;52.122;5.250;2024-03-22T11:57:03;15.3;;;11.9;;
62457;SDS011;48509;52.122;5.250;2024-03-22T11:58:40;16.0;;;12.4;;
62457;SDS011;48509;52.122;5.250;2024-03-22T12:00:16;15.3;;;11.3;;
62457;SDS011;48509;52.122;5.250;2024-03-22T12:03:31;15.4;;;11.4;;
62457;SDS011;48509;52.122;5.250;2024-03-22T12:05:07;12.1;;;9.71;;
62457;SDS011;48509;52.122;5.250;2024-03-22T12:06:46;15.1;;;10.8;;
62457;SDS011;48509;52.122;5.250;2024-03-22T12:08:21;13.4;;;9.9;;
62457;SDS011;48509;52.122;5.250;2024-03-22T12:11:34;14.9;;;11.1;;
62457;SDS011;48509;52.122;5.250;2024-03-22T12:13:10;14.7;;;10.3;;
62457;SDS011;48509;52.122;5.250;2024-03-22T12:14:46;14.1;;;10.8;;
62457;SDS011;48509;52.122;5.250;2024-03-22T12:17:58;19.91;;;12.9;;
62457;SDS011;48509;52.122;5.250;2024-03-22T12:19:34;22.1;;;14.0;;
62457;SDS011;48509;52.122;5.250;2024-03-22T12:21:10;19.41;;;13.7;;
62457;SDS011;48509;52.122;5.250;2024-03-22T12:24:23;17.61;;;12.7;;
62457;SDS011;48509;52.122;5.250;2024-03-22T12:26:01;20.8;;;14.9;;
62457;SDS011;48509;52.122;5.250;2024-03-22T12:27:37;22.9;;;14.4;;
62457;SDS011;48509;52.122;5.250;2024-03-22T12:32:28;22.8;;;15.1;;
62457;SDS011;48509;52.122;5.250;2024-03-22T12:34:04;24.1;;;15.9;;
62457;SDS011;48509;52.122;5.250;2024-03-22T12:35:40;26.9;;;15.8;;